Time;durP1;ratioP1;P1;durP2;ratioP2;P2;SDS_P1;SDS_P2;PMS_P1;PMS_P2;Temp;Humidity;BMP_temperature;BMP_pressure;BME280_temperature;BME280_humidity;BME280_pressure;Samples;Min_cycle;Max_cycle;Signal;HPM_P1;HPM_P2
2022/01/11 00:00:27;;;;;;;6.00;4.37;;;0.40;96.30;;;;;;4897925;29;20173;-69
2022/01/11 00:02:55;;;;;;;7.23;4.83;;;0.40;96.30;;;;;;4898004;29;20200;-69
2022/01/11 00:05:32;;;;;;;4.70;4.30;;;0.40;96.30;;;;;;4897761;29;20417;-72
2022/01/11 00:07:58;;;;;;;6.90;4.50;;;0.40;96.30;;;;;;4897909;29;20421;-69
2022/01/11 00:10:31;;;;;;;4.10;3.63;;;0.40;96.30;;;;;;4897581;29;20493;-69
2022/01/11 00:12:59;;;;;;;8.43;4.50;;;0.40;96.30;;;;;;4897796;29;20697;-70
2022/01/11 00:15:25;;;;;;;6.17;4.40;;;0.50;96.30;;;;;;4897660;29;20433;-71
2022/01/11 00:17:51;;;;;;;6.23;4.80;;;0.40;96.30;;;;;;4897718;29;20973;-71
2022/01/11 00:20:19;;;;;;;8.73;6.07;;;0.40;96.30;;;;;;4897594;29;20508;-69
2022/01/11 00:25:30;;;;;;;11.10;5.60;;;0.40;96.30;;;;;;4913507;29;20557;-71
2022/01/11 00:27:56;;;;;;;10.17;5.93;;;0.40;96.30;;;;;;4916436;29;20916;-69
2022/01/11 00:30:23;;;;;;;9.70;5.27;;;0.40;96.30;;;;;;4915072;29;20465;-69
2022/01/11 00:32:53;;;;;;;9.03;5.03;;;0.50;96.30;;;;;;4897339;29;20433;-69
2022/01/11 00:35:23;;;;;;;11.20;6.20;;;0.50;96.30;;;;;;4904142;29;20913;-70
2022/01/11 00:37:49;;;;;;;7.50;5.43;;;0.40;96.30;;;;;;4899160;29;20494;-69
2022/01/11 00:40:14;;;;;;;8.23;5.87;;;0.40;96.30;;;;;;4897389;29;20457;-69
2022/01/11 00:42:40;;;;;;;12.33;6.70;;;0.40;96.30;;;;;;4897311;29;20990;-69
2022/01/11 00:45:09;;;;;;;8.20;5.93;;;0.40;96.30;;;;;;4897158;29;20180;-70
2022/01/11 00:47:35;;;;;;;10.53;6.77;;;0.40;96.30;;;;;;4897280;29;20717;-70
2022/01/11 00:50:01;;;;;;;10.20;6.07;;;0.40;96.30;;;;;;4897149;29;20461;-69
2022/01/11 00:52:26;;;;;;;8.53;5.77;;;0.40;96.30;;;;;;4904394;29;20303;-70
2022/01/11 00:54:52;;;;;;;8.60;6.33;;;0.40;96.30;;;;;;4915651;29;20177;-71
2022/01/11 00:57:17;;;;;;;9.30;6.47;;;0.40;96.30;;;;;;4916123;29;20176;-69
2022/01/11 00:59:43;;;;;;;9.73;5.90;;;0.40;96.30;;;;;;4915979;29;20180;-69
2022/01/11 05:00:23;;;;;;;25.50;13.13;;;-1.00;96.30;;;;;;5884039;23;20377;-74
2022/01/11 05:02:48;;;;;;;22.77;13.50;;;-1.00;96.30;;;;;;4906755;29;20764;-72
2022/01/11 05:05:15;;;;;;;20.70;13.10;;;-1.00;96.30;;;;;;4909391;29;20410;-73
2022/01/11 05:07:45;;;;;;;23.20;14.40;;;-0.90;96.30;;;;;;4896920;29;20176;-73
2022/01/11 05:10:12;;;;;;;22.53;13.93;;;-0.90;96.30;;;;;;4907931;29;20467;-73
2022/01/11 05:12:41;;;;;;;23.70;15.63;;;-0.90;96.30;;;;;;4916093;29;20440;-73
2022/01/11 05:15:09;;;;;;;26.63;16.57;;;-0.80;96.30;;;;;;4899704;29;20416;-71
2022/01/11 05:17:35;;;;;;;25.20;14.10;;;-0.80;96.30;;;;;;4917893;29;20421;-72
2022/01/11 05:20:01;;;;;;;29.00;14.80;;;-0.90;96.30;;;;;;4899697;29;20427;-72
2022/01/11 05:37:59;;;;;;;19.20;12.37;;;-1.40;96.30;;;;;;5126310;23;20501;-72
2022/01/11 05:48:35;;;;;;;25.30;14.80;;;-1.50;96.30;;;;;;5698559;23;20498;-72
2022/01/11 05:51:01;;;;;;;24.23;13.53;;;-1.50;96.30;;;;;;4919368;29;20551;-72
2022/01/11 05:53:26;;;;;;;24.30;13.07;;;-1.60;96.30;;;;;;4919150;29;20482;-74
2022/01/11 05:55:52;;;;;;;24.30;14.00;;;-1.60;96.30;;;;;;4919929;29;20251;-74
2022/01/11 05:58:18;;;;;;;27.53;13.70;;;-1.60;96.30;;;;;;4918815;29;20663;-73
2022/01/11 06:00:44;;;;;;;22.77;14.30;;;-1.50;96.30;;;;;;4905368;29;20444;-73
2022/01/11 06:03:09;;;;;;;21.83;13.80;;;-1.40;96.30;;;;;;4899977;29;20185;-73
2022/01/11 06:05:38;;;;;;;25.73;15.07;;;-1.30;96.30;;;;;;4900987;29;20200;-73
2022/01/11 06:08:05;;;;;;;26.83;16.30;;;-1.20;96.30;;;;;;4900125;29;20184;-71
2022/01/11 06:10:31;;;;;;;28.07;16.10;;;-1.20;96.30;;;;;;4882759;29;20473;-70
2022/01/11 06:12:57;;;;;;;24.63;15.67;;;-1.10;96.30;;;;;;4900013;29;20514;-71
2022/01/11 06:15:22;;;;;;;24.67;15.63;;;-1.10;96.30;;;;;;4899816;29;20173;-73
2022/01/11 06:17:48;;;;;;;26.37;15.63;;;-1.10;96.30;;;;;;4899907;29;20172;-72
2022/01/11 06:20:13;;;;;;;24.83;15.40;;;-1.10;96.30;;;;;;4899851;29;20224;-71
2022/01/11 06:22:39;;;;;;;22.80;14.77;;;-1.10;96.30;;;;;;4915196;29;20581;-71
2022/01/11 06:25:06;;;;;;;25.07;15.03;;;-1.00;96.30;;;;;;4918242;29;20176;-74
2022/01/11 06:27:32;;;;;;;29.10;15.83;;;-1.00;96.30;;;;;;4918618;29;20219;-71
2022/01/11 06:29:58;;;;;;;33.43;16.07;;;-1.00;96.30;;;;;;4918531;29;20415;-73
2022/01/11 06:32:23;;;;;;;26.70;14.47;;;-1.00;96.30;;;;;;4918335;29;20436;-73
2022/01/11 06:34:49;;;;;;;24.90;13.70;;;-1.00;96.30;;;;;;4899961;29;20261;-73
2022/01/11 06:37:14;;;;;;;19.93;12.00;;;-1.10;96.30;;;;;;4899766;29;20173;-73
2022/01/11 06:39:40;;;;;;;29.20;14.80;;;-1.10;96.30;;;;;;4902494;29;20321;-73
2022/01/11 06:42:07;;;;;;;20.90;13.50;;;-1.10;96.30;;;;;;4903201;29;20212;-73
2022/01/11 06:44:33;;;;;;;26.90;15.20;;;-1.20;96.30;;;;;;4881864;29;20641;-72
2022/01/11 06:46:58;;;;;;;25.60;15.70;;;-1.20;96.30;;;;;;4899439;29;20504;-74
2022/01/11 06:49:24;;;;;;;31.60;16.13;;;-1.20;96.30;;;;;;4899393;29;20589;-71
2022/01/11 06:51:49;;;;;;;30.27;17.23;;;-1.10;96.30;;;;;;4899107;29;20685;-73
2022/01/11 06:54:15;;;;;;;29.70;16.67;;;-1.10;96.30;;;;;;4906990;29;20184;-72
2022/01/11 06:56:40;;;;;;;29.50;16.53;;;-1.10;96.30;;;;;;4910614;29;20195;-72
2022/01/11 06:59:06;;;;;;;29.27;16.77;;;-1.10;96.30;;;;;;4896114;29;20630;-76
2022/01/11 07:01:32;;;;;;;27.37;15.63;;;-1.20;96.30;;;;;;4890069;29;20222;-78
2022/01/11 07:03:57;;;;;;;27.07;14.90;;;-1.20;96.30;;;;;;4895648;29;20917;-72
2022/01/11 07:06:23;;;;;;;22.47;11.70;;;-1.20;96.30;;;;;;4898952;29;20914;-72
2022/01/11 07:08:49;;;;;;;23.47;13.60;;;-1.20;96.30;;;;;;4897557;29;20184;-72
2022/01/11 07:11:14;;;;;;;25.90;14.30;;;-1.20;96.30;;;;;;4909235;29;20280;-73
2022/01/11 07:13:40;;;;;;;27.03;14.80;;;-1.20;96.30;;;;;;4904011;29;20202;-74
2022/01/11 07:16:06;;;;;;;27.30;15.97;;;-1.20;96.30;;;;;;4910829;29;20689;-72
2022/01/11 07:18:31;;;;;;;25.50;16.07;;;-1.20;96.30;;;;;;4901114;29;20264;-72
2022/01/11 07:20:57;;;;;;;26.67;15.40;;;-1.20;96.30;;;;;;4899436;29;20219;-72
2022/01/11 07:23:22;;;;;;;27.77;15.13;;;-1.20;96.30;;;;;;4907324;29;20196;-74
2022/01/11 07:25:48;;;;;;;22.00;12.93;;;-1.20;96.30;;;;;;4899250;29;20189;-72
2022/01/11 07:28:15;;;;;;;21.50;11.93;;;-1.20;96.30;;;;;;4902964;29;20196;-72
2022/01/11 07:30:41;;;;;;;23.60;12.50;;;-1.20;96.30;;;;;;4916247;29;20594;-73
2022/01/11 07:33:07;;;;;;;20.20;11.17;;;-1.20;96.30;;;;;;4916921;29;20503;-75
2022/01/11 07:35:33;;;;;;;20.77;11.30;;;-1.10;96.30;;;;;;4907819;29;20517;-73
2022/01/11 07:37:58;;;;;;;22.10;12.47;;;-1.00;96.30;;;;;;4906242;29;20213;-73
2022/01/11 07:40:24;;;;;;;18.70;10.50;;;-1.00;96.30;;;;;;4898354;29;20732;-73
2022/01/11 07:42:49;;;;;;;20.17;11.73;;;-1.00;96.30;;;;;;4881445;29;20185;-73
2022/01/11 07:45:15;;;;;;;22.27;12.87;;;-1.00;96.30;;;;;;4897282;29;20535;-72
2022/01/11 07:47:41;;;;;;;24.27;13.03;;;-1.00;96.30;;;;;;4898065;29;20185;-72
2022/01/11 07:50:07;;;;;;;28.30;15.37;;;-0.90;96.30;;;;;;4907746;29;20188;-72
2022/01/11 07:52:33;;;;;;;24.40;13.67;;;-0.90;96.30;;;;;;4909771;29;20269;-72
2022/01/11 07:54:59;;;;;;;30.77;12.60;;;-0.80;96.30;;;;;;4883104;29;20437;-73
2022/01/11 07:57:24;;;;;;;21.23;12.90;;;-0.80;96.30;;;;;;4897935;29;20425;-74
2022/01/11 07:59:50;;;;;;;30.57;13.07;;;-0.80;96.30;;;;;;4884630;29;20208;-74
2022/01/11 08:02:17;;;;;;;28.60;13.73;;;-0.70;96.30;;;;;;4898160;29;20668;-73
2022/01/11 08:04:42;;;;;;;24.40;14.03;;;-0.70;96.30;;;;;;4892930;29;21138;-74
2022/01/11 08:07:10;;;;;;;24.00;13.20;;;-0.80;96.30;;;;;;4896705;29;20540;-73
2022/01/11 08:09:35;;;;;;;24.40;13.67;;;-0.70;96.30;;;;;;4900249;29;20216;-72
2022/01/11 08:12:01;;;;;;;22.73;11.50;;;-0.80;96.30;;;;;;4897464;29;20469;-73
2022/01/11 08:14:26;;;;;;;21.20;12.47;;;-0.80;96.30;;;;;;4897155;29;20260;-74
2022/01/11 08:16:52;;;;;;;24.87;11.57;;;-0.80;96.30;;;;;;4892061;29;20266;-73
2022/01/11 08:19:24;;;;;;;22.50;12.23;;;-0.80;96.30;;;;;;4894828;29;20177;-74
2022/01/11 08:21:51;;;;;;;20.33;12.90;;;-0.80;96.30;;;;;;4897634;29;20204;-73
2022/01/11 08:24:16;;;;;;;22.23;12.00;;;-0.80;96.30;;;;;;4902759;29;20432;-73
2022/01/11 08:26:42;;;;;;;20.87;11.17;;;-0.80;96.30;;;;;;4916286;29;20427;-73
2022/01/11 08:29:07;;;;;;;22.37;13.23;;;-0.80;96.30;;;;;;4916258;29;20232;-73
2022/01/11 08:31:33;;;;;;;18.50;10.10;;;-0.80;96.30;;;;;;4916231;29;20299;-73
2022/01/11 08:33:58;;;;;;;20.47;11.97;;;-0.80;96.30;;;;;;4915651;29;20177;-73
2022/01/11 08:36:24;;;;;;;20.07;10.40;;;-0.90;96.30;;;;;;4883341;29;20194;-74
2022/01/11 08:38:49;;;;;;;19.30;10.53;;;-0.90;96.30;;;;;;4897327;29;20181;-73
2022/01/11 08:41:14;;;;;;;17.23;9.27;;;-0.90;96.30;;;;;;4896989;29;20828;-75
2022/01/11 08:43:40;;;;;;;16.60;10.70;;;-0.80;96.30;;;;;;4896612;29;20271;-76
2022/01/11 08:46:05;;;;;;;17.20;9.60;;;-0.80;96.30;;;;;;4898003;29;20244;-75
2022/01/11 08:48:32;;;;;;;20.83;9.93;;;-0.80;96.30;;;;;;4893768;29;20203;-77
2022/01/11 08:50:58;;;;;;;21.07;10.20;;;-0.70;96.30;;;;;;4904634;29;20227;-76
2022/01/11 08:53:24;;;;;;;16.67;10.40;;;-0.60;96.30;;;;;;4910975;29;20420;-73
2022/01/11 08:55:50;;;;;;;18.33;10.93;;;-0.50;96.30;;;;;;4915999;29;20176;-73
2022/01/11 08:58:17;;;;;;;15.83;10.90;;;-0.40;96.30;;;;;;4901087;29;20425;-76
2022/01/11 09:00:43;;;;;;;22.77;11.53;;;-0.30;96.30;;;;;;4897076;29;20433;-73
2022/01/11 09:03:09;;;;;;;18.50;10.27;;;-0.20;96.30;;;;;;4894835;29;20581;-73
2022/01/11 09:05:35;;;;;;;23.00;11.10;;;-0.10;96.30;;;;;;4892757;29;20196;-73
2022/01/11 09:08:01;;;;;;;17.13;10.07;;;-0.20;96.30;;;;;;4893102;29;20436;-75
2022/01/11 09:10:26;;;;;;;18.73;10.40;;;-0.10;96.30;;;;;;4895472;29;20461;-76
2022/01/11 09:12:52;;;;;;;20.43;10.30;;;-0.10;96.30;;;;;;4896937;29;20883;-76
2022/01/11 09:15:19;;;;;;;14.30;8.53;;;-0.20;96.30;;;;;;4896518;29;20184;-74
2022/01/11 09:17:45;;;;;;;22.17;9.97;;;-0.20;96.30;;;;;;4896944;29;20228;-75
2022/01/11 09:20:12;;;;;;;17.60;9.50;;;-0.50;96.30;;;;;;4914042;29;20455;-74
2022/01/11 09:22:38;;;;;;;18.00;9.67;;;-0.40;96.30;;;;;;4898787;29;20180;-74
2022/01/11 09:25:04;;;;;;;18.90;9.80;;;-0.30;96.30;;;;;;4899911;29;20480;-74
2022/01/11 09:27:29;;;;;;;17.80;8.80;;;-0.20;96.30;;;;;;4896605;29;20173;-74
2022/01/11 09:29:55;;;;;;;16.73;10.50;;;-0.20;96.30;;;;;;4896845;29;20420;-74
2022/01/11 09:32:21;;;;;;;22.70;9.73;;;-0.20;96.30;;;;;;4896545;29;20912;-76
2022/01/11 09:34:46;;;;;;;21.97;10.60;;;-0.20;96.30;;;;;;4896677;29;20186;-77
2022/01/11 09:37:12;;;;;;;19.83;10.50;;;-0.20;96.30;;;;;;4879685;29;20226;-77
2022/01/11 09:39:39;;;;;;;19.37;9.23;;;-0.30;96.30;;;;;;4906482;29;20176;-76
2022/01/11 09:42:06;;;;;;;21.07;11.43;;;-0.30;96.30;;;;;;4896171;29;20200;-77
2022/01/11 09:44:33;;;;;;;21.37;10.30;;;-0.10;96.30;;;;;;4902635;29;20416;-77
2022/01/11 09:46:59;;;;;;;19.50;11.00;;;-0.20;96.30;;;;;;4915487;29;20427;-76
2022/01/11 09:49:25;;;;;;;20.13;10.63;;;-0.20;96.30;;;;;;4915228;29;20535;-77
2022/01/11 09:51:51;;;;;;;14.67;8.57;;;-0.20;96.30;;;;;;4915336;29;20552;-77
2022/01/11 09:54:19;;;;;;;18.20;8.97;;;-0.30;96.30;;;;;;4910538;29;20747;-77
2022/01/11 09:56:45;;;;;;;17.83;8.43;;;-0.10;96.30;;;;;;4902116;29;20424;-76
2022/01/11 09:59:10;;;;;;;19.43;10.27;;;0.10;96.30;;;;;;4896892;29;20437;-77
2022/01/11 10:01:36;;;;;;;19.07;9.33;;;0.40;96.30;;;;;;4896485;29;20201;-77
2022/01/11 10:04:11;;;;;;;20.37;10.37;;;0.50;96.30;;;;;;4879325;29;20648;-77
2022/01/11 10:06:41;;;;;;;17.47;10.83;;;0.50;96.30;;;;;;4891943;29;20184;-75
2022/01/11 10:09:12;;;;;;;16.60;9.80;;;0.50;96.30;;;;;;4875792;29;20508;-77
2022/01/11 10:11:41;;;;;;;19.43;9.60;;;0.50;96.30;;;;;;4899964;29;20473;-76
2022/01/11 10:14:43;;;;;;;22.33;9.80;;;0.50;96.30;;;;;;4882613;29;20508;-76
2022/01/11 10:17:11;;;;;;;17.70;9.33;;;0.40;96.30;;;;;;4865874;29;20921;-76
2022/01/11 10:19:41;;;;;;;22.30;9.93;;;0.50;96.30;;;;;;4914010;29;20484;-75
2022/01/11 10:22:12;;;;;;;20.67;11.10;;;0.60;96.30;;;;;;4907613;29;20844;-76
2022/01/11 10:24:42;;;;;;;19.60;11.30;;;0.70;96.30;;;;;;4916377;29;20955;-76
2022/01/11 10:27:17;;;;;;;20.30;10.27;;;0.70;96.30;;;;;;4893786;29;20425;-76
2022/01/11 10:29:49;;;;;;;20.40;11.57;;;0.80;96.30;;;;;;4882736;29;20460;-76
2022/01/11 10:32:30;;;;;;;18.77;11.30;;;0.90;96.30;;;;;;4899438;29;20480;-75
2022/01/11 10:34:58;;;;;;;18.70;11.53;;;0.70;96.30;;;;;;4899986;29;20441;-74
2022/01/11 10:37:45;;;;;;;14.43;9.23;;;0.70;96.30;;;;;;4892513;29;20511;-74
2022/01/11 10:40:13;;;;;;;17.33;9.67;;;0.70;96.30;;;;;;4899026;29;20417;-74
2022/01/11 10:42:49;;;;;;;12.87;8.10;;;0.70;96.30;;;;;;4912387;29;20424;-75
2022/01/11 10:45:14;;;;;;;17.17;10.60;;;0.70;96.30;;;;;;4900479;29;20416;-75
2022/01/11 10:47:43;;;;;;;11.33;7.10;;;0.80;96.30;;;;;;4904181;29;20528;-74
2022/01/11 10:50:12;;;;;;;13.17;7.43;;;0.80;96.30;;;;;;4905953;29;20243;-72
2022/01/11 10:52:38;;;;;;;14.33;8.13;;;0.70;96.30;;;;;;4917792;29;20416;-75
2022/01/11 10:55:06;;;;;;;18.30;10.17;;;0.70;96.30;;;;;;4898785;29;20504;-72
2022/01/11 10:57:36;;;;;;;14.70;8.60;;;0.70;96.30;;;;;;4899289;29;20433;-73
2022/01/11 11:00:25;;;;;;;17.07;7.50;;;0.70;96.30;;;;;;4882490;29;20446;-73
2022/01/11 11:02:58;;;;;;;16.30;9.23;;;0.60;96.30;;;;;;4881890;29;20831;-73
2022/01/11 11:05:30;;;;;;;16.60;9.10;;;0.10;96.30;;;;;;4898109;29;20431;-73
2022/01/11 11:08:08;;;;;;;17.93;9.57;;;0.20;96.30;;;;;;4877263;29;20433;-79
2022/01/11 11:10:37;;;;;;;17.00;9.47;;;0.40;96.30;;;;;;4896736;29;20471;-73
2022/01/11 11:13:04;;;;;;;23.43;10.10;;;0.40;96.30;;;;;;4917882;29;20421;-73
2022/01/11 11:15:33;;;;;;;17.43;9.40;;;0.40;96.30;;;;;;4894655;29;20843;-73
2022/01/11 11:17:59;;;;;;;16.07;10.07;;;0.40;96.30;;;;;;4898735;29;21067;-72
2022/01/11 11:20:25;;;;;;;20.07;10.90;;;0.40;96.30;;;;;;4897913;29;20909;-72
2022/01/11 11:22:51;;;;;;;12.43;8.87;;;0.50;96.30;;;;;;4898864;29;20424;-72
2022/01/11 11:25:17;;;;;;;19.73;10.90;;;0.60;96.30;;;;;;4898275;29;20453;-75
2022/01/11 11:27:43;;;;;;;17.07;10.40;;;0.60;96.30;;;;;;4898736;29;20509;-72
2022/01/11 11:30:08;;;;;;;18.53;10.50;;;0.70;96.30;;;;;;4898643;29;20180;-72
2022/01/11 11:32:35;;;;;;;18.17;10.87;;;0.60;96.30;;;;;;4898523;29;20200;-72
2022/01/11 11:35:00;;;;;;;19.10;10.67;;;0.70;96.30;;;;;;4898051;29;20267;-72
2022/01/11 11:37:34;;;;;;;19.70;11.10;;;0.60;96.30;;;;;;4898557;29;20785;-72
2022/01/11 11:40:06;;;;;;;25.37;12.00;;;0.70;96.30;;;;;;4898502;29;20252;-75
2022/01/11 11:42:32;;;;;;;21.63;12.00;;;0.70;96.30;;;;;;4898496;29;20520;-71
2022/01/11 11:44:59;;;;;;;16.93;10.13;;;0.60;96.30;;;;;;4881039;29;20417;-72
2022/01/11 11:47:31;;;;;;;17.50;11.23;;;0.70;96.30;;;;;;4905482;29;20436;-71
2022/01/11 11:50:00;;;;;;;16.63;8.97;;;0.90;96.30;;;;;;4917005;29;20427;-74
2022/01/11 11:52:39;;;;;;;14.83;8.47;;;1.10;96.30;;;;;;4916901;29;20499;-72
2022/01/11 11:55:20;;;;;;;21.33;9.33;;;1.10;96.30;;;;;;4916060;29;20407;-73
2022/01/11 11:57:48;;;;;;;12.30;8.43;;;1.20;96.30;;;;;;4897366;29;20421;-73
2022/01/11 12:00:23;;;;;;;13.03;8.20;;;1.30;96.30;;;;;;4898939;29;20424;-73
2022/01/11 12:03:16;;;;;;;15.70;8.37;;;1.40;96.30;;;;;;4881017;29;20487;-73
2022/01/11 12:05:45;;;;;;;11.27;7.60;;;1.50;96.30;;;;;;4893909;29;20420;-72
2022/01/11 12:08:31;;;;;;;14.00;7.57;;;1.70;96.30;;;;;;4898068;29;20927;-73
2022/01/11 12:11:02;;;;;;;14.50;8.77;;;1.40;96.30;;;;;;4897517;29;20476;-73
2022/01/11 12:13:46;;;;;;;15.80;9.03;;;1.60;96.30;;;;;;4897297;29;20429;-72
2022/01/11 12:16:38;;;;;;;12.30;8.40;;;1.80;96.30;;;;;;4897937;29;20394;-75
2022/01/11 12:19:14;;;;;;;17.80;9.13;;;1.60;96.30;;;;;;4890539;29;20428;-73
2022/01/11 12:22:01;;;;;;;17.53;8.73;;;1.00;96.30;;;;;;4896501;29;20444;-74
2022/01/11 12:24:41;;;;;;;13.93;7.50;;;1.00;96.30;;;;;;4896605;29;20575;-73
2022/01/11 12:27:10;;;;;;;15.50;9.00;;;1.20;96.30;;;;;;4897463;29;20512;-73
2022/01/11 12:29:55;;;;;;;13.10;7.40;;;1.40;96.30;;;;;;4897429;29;20448;-73
2022/01/11 12:32:23;;;;;;;14.70;8.60;;;1.70;96.30;;;;;;4897205;29;20468;-73
2022/01/11 12:34:50;;;;;;;13.97;8.30;;;2.00;96.30;;;;;;4896586;29;20500;-73
2022/01/11 12:37:29;;;;;;;12.93;8.03;;;2.00;96.30;;;;;;4889214;29;20425;-73
2022/01/11 12:40:13;;;;;;;13.73;7.53;;;2.00;96.30;;;;;;4901967;29;20413;-73
2022/01/11 12:43:02;;;;;;;13.27;7.43;;;2.00;96.30;;;;;;4915022;29;20427;-73
2022/01/11 12:45:46;;;;;;;13.77;7.90;;;1.90;96.30;;;;;;4915460;29;20412;-74
2022/01/11 12:48:12;;;;;;;16.53;9.00;;;1.70;96.30;;;;;;4915949;29;20432;-73
2022/01/11 12:51:01;;;;;;;14.67;8.10;;;1.50;96.30;;;;;;4915875;29;20472;-74
2022/01/11 12:53:26;;;;;;;17.27;10.63;;;1.70;96.30;;;;;;4915189;29;20203;-74
2022/01/11 12:55:56;;;;;;;16.87;9.33;;;1.90;96.30;;;;;;4903374;29;20483;-73
2022/01/11 12:58:24;;;;;;;17.03;10.57;;;1.70;96.30;;;;;;4907531;29;20176;-74
2022/01/11 13:00:50;;;;;;;16.87;10.13;;;1.50;96.30;;;;;;4900435;29;20440;-74
2022/01/11 13:03:16;;;;;;;15.03;9.43;;;1.40;96.30;;;;;;4914212;29;20432;-73
2022/01/11 13:05:43;;;;;;;14.90;7.30;;;1.30;96.30;;;;;;4906719;29;21007;-73
2022/01/11 13:08:09;;;;;;;13.10;8.13;;;1.30;96.30;;;;;;4915879;29;20187;-74
2022/01/11 13:10:34;;;;;;;16.33;8.30;;;1.10;96.30;;;;;;4908332;29;20468;-73
2022/01/11 13:13:04;;;;;;;14.50;8.23;;;1.10;96.30;;;;;;4915927;29;20180;-74
2022/01/11 13:15:38;;;;;;;15.37;7.37;;;1.00;96.30;;;;;;4915199;29;20975;-74
2022/01/11 13:18:08;;;;;;;13.57;7.30;;;1.00;96.30;;;;;;4915261;29;20527;-74
2022/01/11 13:20:35;;;;;;;13.23;6.93;;;0.90;96.30;;;;;;4915187;29;20428;-73
2022/01/11 13:23:18;;;;;;;15.50;6.70;;;0.90;96.30;;;;;;4915519;29;20409;-74
2022/01/11 13:26:02;;;;;;;11.80;7.40;;;0.90;96.30;;;;;;4894934;29;20985;-73
2022/01/11 13:28:35;;;;;;;13.73;7.80;;;0.90;96.30;;;;;;4902030;29;20948;-74
2022/01/11 13:31:05;;;;;;;15.50;7.87;;;1.10;96.30;;;;;;4915365;29;20468;-74
2022/01/11 13:33:33;;;;;;;16.63;9.33;;;1.00;96.30;;;;;;4898480;29;20421;-73
2022/01/11 13:36:20;;;;;;;15.90;10.00;;;0.90;96.30;;;;;;4904945;29;20447;-74
2022/01/11 13:38:52;;;;;;;15.77;10.93;;;0.80;96.30;;;;;;4889638;29;20431;-73
2022/01/11 13:41:27;;;;;;;11.00;7.40;;;0.90;96.30;;;;;;4903154;29;20563;-74
2022/01/11 13:43:58;;;;;;;11.40;7.30;;;0.90;96.30;;;;;;4893109;29;20423;-73
2022/01/11 13:46:24;;;;;;;13.50;7.73;;;1.00;96.30;;;;;;4903306;29;20946;-73
2022/01/11 13:48:51;;;;;;;10.50;6.93;;;1.00;96.30;;;;;;4909813;29;20533;-73
2022/01/11 13:51:24;;;;;;;9.33;7.20;;;1.10;96.30;;;;;;4909724;29;20479;-73
2022/01/11 13:54:00;;;;;;;13.23;7.10;;;1.10;96.30;;;;;;4908388;29;20436;-74
2022/01/11 13:56:31;;;;;;;8.53;6.70;;;1.10;96.30;;;;;;4906874;29;20488;-74
2022/01/11 13:58:57;;;;;;;10.90;7.50;;;0.80;96.30;;;;;;4906358;29;20577;-73
2022/01/11 14:01:26;;;;;;;11.83;7.43;;;0.60;96.30;;;;;;4899630;29;20440;-74
2022/01/11 14:04:11;;;;;;;10.87;7.50;;;0.40;96.30;;;;;;4908344;29;20645;-74
2022/01/11 14:06:43;;;;;;;10.07;6.50;;;0.40;96.30;;;;;;4899009;29;20439;-74
2022/01/11 14:09:12;;;;;;;12.07;6.90;;;0.40;96.30;;;;;;4876028;29;20448;-73
2022/01/11 14:11:50;;;;;;;10.60;6.80;;;0.30;96.30;;;;;;4893579;29;20482;-74
2022/01/11 14:14:22;;;;;;;12.83;7.60;;;0.20;96.30;;;;;;4883668;29;20448;-74
2022/01/11 14:16:50;;;;;;;11.33;6.60;;;0.30;96.30;;;;;;4883035;29;20811;-73
2022/01/11 14:19:16;;;;;;;8.40;5.50;;;0.10;96.30;;;;;;4891732;29;20856;-73
2022/01/11 14:21:58;;;;;;;8.60;5.47;;;0.10;96.30;;;;;;4901274;29;21003;-74
2022/01/11 14:24:44;;;;;;;8.93;5.40;;;0.10;96.30;;;;;;4883832;29;20477;-73
2022/01/11 14:27:37;;;;;;;9.93;6.10;;;0.20;96.30;;;;;;4884315;29;20948;-74
2022/01/11 14:30:14;;;;;;;8.50;5.30;;;0.20;96.30;;;;;;4897793;29;20521;-74
2022/01/11 14:32:51;;;;;;;8.43;5.20;;;0.20;96.30;;;;;;4907402;29;20441;-73
2022/01/11 14:35:20;;;;;;;7.70;4.70;;;0.20;96.30;;;;;;4905876;29;20423;-75
2022/01/11 14:37:57;;;;;;;10.03;5.87;;;0.10;96.30;;;;;;4908434;29;20432;-73
2022/01/11 14:40:27;;;;;;;10.00;5.83;;;0.00;96.30;;;;;;4903327;29;20412;-73
2022/01/11 14:42:53;;;;;;;9.07;5.40;;;0.00;96.30;;;;;;4902736;29;20436;-73
2022/01/11 14:45:23;;;;;;;9.10;6.03;;;0.00;96.30;;;;;;4917182;29;20428;-74
2022/01/11 14:47:51;;;;;;;9.07;5.40;;;-0.10;96.30;;;;;;4903198;29;20259;-73
2022/01/11 14:50:27;;;;;;;10.37;5.63;;;-0.10;96.30;;;;;;4899111;29;20394;-73
2022/01/11 14:52:57;;;;;;;7.43;5.00;;;-0.10;96.30;;;;;;4899250;29;20447;-73
2022/01/11 14:55:46;;;;;;;9.33;5.40;;;-0.20;96.30;;;;;;4898697;29;20484;-74
2022/01/11 14:58:12;;;;;;;7.67;4.50;;;-0.30;96.30;;;;;;4903992;29;20417;-74
2022/01/11 15:00:45;;;;;;;7.53;4.57;;;-0.50;96.30;;;;;;4902563;29;20452;-74
2022/01/11 15:03:11;;;;;;;6.93;4.50;;;-0.60;96.30;;;;;;4917625;29;20440;-73
2022/01/11 15:05:36;;;;;;;11.90;6.50;;;-0.60;96.30;;;;;;4915416;29;20853;-74
2022/01/11 15:08:04;;;;;;;14.33;8.43;;;-0.60;96.30;;;;;;4917978;29;20641;-74
2022/01/11 15:10:33;;;;;;;11.03;7.80;;;-0.60;96.30;;;;;;4910487;29;20205;-74
2022/01/11 15:12:59;;;;;;;14.80;9.10;;;-0.50;96.30;;;;;;4906633;29;20428;-75
2022/01/11 15:15:26;;;;;;;15.57;8.90;;;-0.50;96.30;;;;;;4904365;29;20552;-74
2022/01/11 15:17:52;;;;;;;13.90;8.43;;;-0.60;96.30;;;;;;4907272;29;20176;-75
2022/01/11 15:20:18;;;;;;;13.87;7.90;;;-0.60;96.30;;;;;;4902552;29;20461;-75
2022/01/11 15:22:44;;;;;;;12.10;7.63;;;-0.60;96.30;;;;;;4903892;29;20188;-76
2022/01/11 15:25:12;;;;;;;9.10;7.00;;;-0.60;96.30;;;;;;4889098;29;20424;-74
2022/01/11 15:27:40;;;;;;;16.03;8.30;;;-0.50;96.30;;;;;;4902250;29;20189;-73
2022/01/11 15:30:08;;;;;;;10.53;6.60;;;-0.50;96.30;;;;;;4911992;29;20496;-72
2022/01/11 15:32:34;;;;;;;13.80;7.20;;;-0.50;96.30;;;;;;4907836;29;21010;-72
2022/01/11 15:35:00;;;;;;;11.60;6.70;;;-0.50;96.30;;;;;;4886996;29;20433;-75
2022/01/11 15:37:26;;;;;;;10.47;6.73;;;-0.60;96.30;;;;;;4903843;29;20428;-72
2022/01/11 15:39:52;;;;;;;10.10;6.57;;;-0.70;96.30;;;;;;4887108;29;20548;-73
2022/01/11 15:42:17;;;;;;;8.63;6.50;;;-0.70;96.30;;;;;;4889401;29;20639;-73
2022/01/11 15:44:43;;;;;;;9.20;6.17;;;-0.70;96.30;;;;;;4909974;29;20672;-74
2022/01/11 15:47:09;;;;;;;9.60;6.20;;;-0.70;96.30;;;;;;4908001;29;20188;-76
2022/01/11 15:49:35;;;;;;;9.67;5.90;;;-0.70;96.30;;;;;;4904190;29;20191;-72
2022/01/11 15:52:01;;;;;;;10.00;6.80;;;-0.70;96.30;;;;;;4899855;29;20532;-73
2022/01/11 15:54:26;;;;;;;9.33;6.67;;;-0.70;96.30;;;;;;4900811;29;20236;-75
2022/01/11 15:56:52;;;;;;;8.63;6.43;;;-0.80;96.30;;;;;;4904343;29;20195;-73
2022/01/11 15:59:19;;;;;;;8.40;6.30;;;-0.70;96.30;;;;;;4883269;29;20654;-73
2022/01/11 16:01:45;;;;;;;9.40;6.10;;;-0.80;96.30;;;;;;4904766;29;20877;-73
2022/01/11 16:04:10;;;;;;;7.57;6.07;;;-0.80;96.30;;;;;;4899022;29;20520;-73
2022/01/11 16:06:37;;;;;;;12.43;6.93;;;-0.90;96.30;;;;;;4900566;29;20274;-73
2022/01/11 16:09:03;;;;;;;10.40;7.37;;;-0.90;96.30;;;;;;4901570;29;20544;-72
2022/01/11 16:11:28;;;;;;;11.90;6.93;;;-1.00;96.30;;;;;;4906727;29;21008;-72
2022/01/11 16:13:54;;;;;;;13.60;7.87;;;-1.00;96.30;;;;;;4886961;29;20422;-72
2022/01/11 16:16:20;;;;;;;10.90;7.00;;;-1.00;96.30;;;;;;4906760;29;20174;-72
2022/01/11 16:18:45;;;;;;;11.07;5.97;;;-1.00;96.30;;;;;;4906592;29;20413;-72
2022/01/11 16:21:11;;;;;;;9.17;5.90;;;-0.90;96.30;;;;;;4901120;29;20296;-72
2022/01/11 16:23:37;;;;;;;8.23;5.37;;;-0.90;96.30;;;;;;4889346;29;20179;-72
2022/01/11 16:26:03;;;;;;;9.03;5.70;;;-0.90;96.30;;;;;;4909625;29;20985;-73
2022/01/11 16:28:28;;;;;;;5.10;3.17;;;-1.00;96.30;;;;;;4899376;29;20516;-72
2022/01/11 16:30:57;;;;;;;4.90;3.60;;;-1.00;96.30;;;;;;4890352;29;20996;-72
2022/01/11 16:33:23;;;;;;;10.37;5.83;;;-1.10;96.30;;;;;;4885206;29;20179;-72
2022/01/11 16:35:50;;;;;;;9.20;5.17;;;-1.10;96.30;;;;;;4903905;29;20413;-72
2022/01/11 16:38:17;;;;;;;7.07;5.77;;;-1.10;96.30;;;;;;4900568;29;20437;-73
2022/01/11 16:43:14;;;;;;;6.60;5.33;;;-1.20;96.30;;;;;;4903773;29;20433;-72
2022/01/11 16:45:45;;;;;;;8.70;5.30;;;-1.20;96.30;;;;;;4906684;29;20421;-72
2022/01/11 16:48:12;;;;;;;7.30;5.17;;;-1.20;96.30;;;;;;4902753;29;20453;-72
2022/01/11 16:50:38;;;;;;;10.47;6.00;;;-1.20;96.30;;;;;;4901526;29;20528;-72
2022/01/11 16:53:07;;;;;;;8.73;5.33;;;-1.20;96.30;;;;;;4906723;29;20432;-72
2022/01/11 16:55:33;;;;;;;9.73;5.87;;;-1.20;96.30;;;;;;4897806;29;20558;-73
2022/01/11 16:57:59;;;;;;;11.10;5.20;;;-1.20;96.30;;;;;;4905622;29;20420;-73
2022/01/11 17:00:25;;;;;;;9.50;6.30;;;-1.20;96.30;;;;;;4897073;29;20184;-73
2022/01/11 17:02:52;;;;;;;16.50;9.90;;;-1.20;96.30;;;;;;4901236;29;20409;-74
2022/01/11 17:05:18;;;;;;;9.80;6.77;;;-1.20;96.30;;;;;;4879559;29;20492;-74
2022/01/11 17:07:43;;;;;;;8.57;5.27;;;-1.20;96.30;;;;;;4889132;29;20568;-73
2022/01/11 17:10:12;;;;;;;9.03;5.73;;;-1.20;96.30;;;;;;4902138;29;20433;-75
2022/01/11 17:12:38;;;;;;;6.80;5.00;;;-1.10;96.30;;;;;;4909820;29;20235;-74